createdAt,value
2018-09-29T00:00:54.725Z,10.51
2018-09-29T00:05:59.195Z,10.46
2018-09-29T00:11:03.427Z,10.39
2018-09-29T00:16:08.131Z,10.33
2018-09-29T00:21:13.461Z,10.28
2018-09-29T00:26:17.614Z,10.26
2018-09-29T00:31:22.290Z,10.26
2018-09-29T00:36:26.737Z,10.25
2018-09-29T00:41:31.438Z,10.18
2018-09-29T00:46:35.711Z,10.16
2018-09-29T00:51:40.071Z,10.13
2018-09-29T00:56:45.986Z,10.11
2018-09-29T01:01:50.314Z,10.08
2018-09-29T01:06:55.395Z,10.10
2018-09-29T01:11:59.674Z,10.15
2018-09-29T01:17:03.807Z,10.20
2018-09-29T01:22:08.087Z,10.14
2018-09-29T01:27:12.461Z,10.08
2018-09-29T01:32:16.703Z,10.01
2018-09-29T01:37:20.982Z,10.01
2018-09-29T01:42:25.726Z,9.99
2018-09-29T01:47:31.476Z,9.99
2018-09-29T01:52:35.761Z,9.94
2018-09-29T01:57:39.962Z,9.89
2018-09-29T02:02:44.127Z,9.86
2018-09-29T02:07:48.384Z,9.85
2018-09-29T02:12:53.190Z,9.82
2018-09-29T02:17:57.480Z,9.77
2018-09-29T02:23:01.676Z,9.72
2018-09-29T02:28:05.884Z,9.64
2018-09-29T02:33:10.111Z,9.58
2018-09-29T02:38:14.777Z,9.58
2018-09-29T02:43:18.804Z,9.59
2018-09-29T02:48:23.808Z,9.54
2018-09-29T02:53:28.092Z,9.49
2018-09-29T02:58:32.610Z,9.44
2018-09-29T03:03:36.846Z,9.41
2018-09-29T03:08:41.186Z,9.39
2018-09-29T03:13:45.496Z,9.34
2018-09-29T03:18:50.078Z,9.27
2018-09-29T03:23:54.286Z,9.26
2018-09-29T03:28:58.783Z,9.20
2018-09-29T03:34:03.506Z,9.13
2018-09-29T03:39:10.262Z,9.12
2018-09-29T03:44:14.718Z,9.08
2018-09-29T03:49:19.032Z,8.90
2018-09-29T03:54:23.684Z,8.76
2018-09-29T03:59:28.146Z,8.75
2018-09-29T04:04:33.985Z,8.72
2018-09-29T04:09:39.402Z,8.64
2018-09-29T04:14:43.842Z,8.62
2018-09-29T04:19:53.674Z,8.61
2018-09-29T04:24:58.110Z,8.63
2018-09-29T04:30:02.714Z,8.64
2018-09-29T04:35:07.183Z,8.64
2018-09-29T04:40:12.430Z,8.69
2018-09-29T04:45:16.881Z,8.67
2018-09-29T04:50:21.239Z,8.63
2018-09-29T04:55:25.756Z,8.57
2018-09-29T05:00:30.074Z,8.57
2018-09-29T05:05:34.614Z,8.50
2018-09-29T05:10:38.995Z,8.58
2018-09-29T05:15:43.474Z,8.57
2018-09-29T05:20:48.078Z,8.48
2018-09-29T05:25:52.278Z,8.55
2018-09-29T05:30:56.601Z,8.58
2018-09-29T05:36:01.500Z,8.58
2018-09-29T05:41:05.763Z,8.61
2018-09-29T05:46:10.064Z,8.62
2018-09-29T05:51:14.431Z,8.64
2018-09-29T05:56:19.121Z,8.65
2018-09-29T06:01:28.468Z,8.69
2018-09-29T06:06:33.096Z,8.73
2018-09-29T06:11:37.836Z,8.80
2018-09-29T06:16:43.066Z,8.72
2018-09-29T06:21:47.409Z,8.80
2018-09-29T06:26:51.775Z,8.73
2018-09-29T06:31:55.944Z,8.83
2018-09-29T06:37:00.369Z,8.83
2018-09-29T06:42:05.333Z,8.76
2018-09-29T06:47:09.985Z,8.66
2018-09-29T06:52:15.541Z,8.71
2018-09-29T06:57:20.039Z,8.72
2018-09-29T07:02:24.415Z,8.83
2018-09-29T07:07:28.925Z,9.04
2018-09-29T07:12:33.500Z,9.11
2018-09-29T07:17:38.069Z,9.12
2018-09-29T07:22:42.458Z,9.15
2018-09-29T07:27:46.864Z,9.08
2018-09-29T07:32:51.350Z,9.18
2018-09-29T07:37:55.579Z,9.28
2018-09-29T07:42:59.935Z,9.37
2018-09-29T07:48:04.782Z,9.42
2018-09-29T07:53:09.636Z,9.55
2018-09-29T07:58:13.930Z,9.65
2018-09-29T08:03:18.428Z,9.81
2018-09-29T08:08:23.619Z,9.93
2018-09-29T08:13:28.118Z,10.19
2018-09-29T08:18:32.603Z,10.41
2018-09-29T08:23:37.141Z,10.61
2018-09-29T08:28:50.880Z,10.86
2018-09-29T08:34:02.605Z,11.08
2018-09-29T08:39:08.166Z,11.34
2018-09-29T08:44:12.354Z,11.64
2018-09-29T08:49:16.630Z,12.01
2018-09-29T08:54:21.077Z,12.53
2018-09-29T08:59:25.374Z,13.08
2018-09-29T09:04:29.673Z,13.72
2018-09-29T09:09:33.913Z,14.45
2018-09-29T09:14:38.401Z,15.13
2018-09-29T09:19:42.944Z,15.75
2018-09-29T09:24:47.334Z,17.25
2018-09-29T09:29:51.676Z,18.79
2018-09-29T09:34:56.001Z,20.75
2018-09-29T09:40:00.285Z,21.11
2018-09-29T09:45:05.330Z,21.91
2018-09-29T09:50:10.627Z,22.80
2018-09-29T09:55:15.455Z,23.61
2018-09-29T10:00:20.044Z,20.42
2018-09-29T10:05:24.837Z,17.65
2018-09-29T10:10:28.390Z,16.59
2018-09-29T10:15:31.945Z,16.06
2018-09-29T10:20:36.228Z,15.86
2018-09-29T10:25:40.108Z,16.09
2018-09-29T10:30:43.544Z,15.93
2018-09-29T10:35:46.901Z,15.73
2018-09-29T10:40:55.357Z,15.30
2018-09-29T10:45:59.047Z,14.89
2018-09-29T10:51:03.628Z,14.66
2018-09-29T10:56:08.123Z,14.18
2018-09-29T11:01:12.570Z,13.81
2018-09-29T11:06:16.967Z,13.68
2018-09-29T11:11:21.334Z,13.63
2018-09-29T11:16:25.680Z,13.59
2018-09-29T11:21:29.972Z,13.49
2018-09-29T11:26:34.620Z,13.37
2018-09-29T11:31:39.133Z,13.30
2018-09-29T11:36:43.596Z,13.35
2018-09-29T11:41:48.016Z,13.40
2018-09-29T11:46:52.543Z,14.37
2018-09-29T11:51:57.331Z,15.96
2018-09-29T11:57:01.825Z,17.57
2018-09-29T12:02:06.486Z,18.74
2018-09-29T12:07:11.305Z,19.55
2018-09-29T12:12:15.679Z,20.12
2018-09-29T12:17:20.085Z,20.90
2018-09-29T12:22:29.734Z,20.77
2018-09-29T12:27:34.059Z,21.43
2018-09-29T12:32:38.483Z,21.64
2018-09-29T12:37:43.127Z,21.61
2018-09-29T12:42:47.933Z,20.71
2018-09-29T12:47:53.195Z,19.72
2018-09-29T12:52:58.029Z,20.09
2018-09-29T12:58:02.979Z,21.53
2018-09-29T13:03:08.619Z,22.81
2018-09-29T13:08:13.023Z,23.10
2018-09-29T13:13:18.207Z,23.79
2018-09-29T13:18:22.848Z,24.44
2018-09-29T13:23:27.322Z,24.93
2018-09-29T13:28:31.933Z,24.46
2018-09-29T13:33:36.607Z,24.26
2018-09-29T13:38:41.207Z,23.26
2018-09-29T13:43:45.745Z,22.18
2018-09-29T13:48:50.305Z,21.90
2018-09-29T13:53:54.789Z,21.66
2018-09-29T13:58:59.219Z,21.24
2018-09-29T14:04:04.011Z,21.04
2018-09-29T14:09:09.999Z,20.87
2018-09-29T14:14:14.390Z,19.96
2018-09-29T14:19:19.506Z,19.14
2018-09-29T14:24:24.767Z,18.65
2018-09-29T14:29:29.080Z,18.36
2018-09-29T14:34:33.276Z,17.59
2018-09-29T14:39:37.691Z,17.09
2018-09-29T14:44:42.027Z,16.60
2018-09-29T14:49:47.093Z,16.64
2018-09-29T14:54:51.613Z,16.59
2018-09-29T14:59:56.307Z,16.52
2018-09-29T15:05:00.608Z,16.17
2018-09-29T15:10:05.002Z,16.00
2018-09-29T15:15:09.405Z,15.98
2018-09-29T15:20:13.734Z,16.00
2018-09-29T15:25:18.280Z,16.10
2018-09-29T15:30:22.859Z,15.97
2018-09-29T15:35:27.155Z,15.92
2018-09-29T15:40:31.841Z,15.76
2018-09-29T15:45:36.476Z,15.70
2018-09-29T15:50:41.126Z,15.68
2018-09-29T15:55:45.879Z,15.68
2018-09-29T16:00:50.404Z,15.58
2018-09-29T16:05:54.707Z,15.49
2018-09-29T16:10:59.268Z,15.41
2018-09-29T16:16:03.665Z,15.33
2018-09-29T16:21:08.420Z,15.24
2018-09-29T16:26:12.721Z,15.15
2018-09-29T16:31:17.419Z,15.09
2018-09-29T16:36:21.693Z,14.94
2018-09-29T16:41:26.276Z,14.91
2018-09-29T16:46:31.436Z,14.85
2018-09-29T16:51:35.711Z,14.79
2018-09-29T16:56:40.128Z,14.79
2018-09-29T17:01:49.680Z,14.73
2018-09-29T17:06:54.210Z,14.69
2018-09-29T17:11:59.550Z,14.56
2018-09-29T17:17:04.692Z,14.52
2018-09-29T17:22:09.420Z,14.45
2018-09-29T17:27:13.700Z,14.35
2018-09-29T17:32:18.154Z,14.28
2018-09-29T17:37:22.785Z,14.20
2018-09-29T17:42:32.276Z,14.15
2018-09-29T17:47:37.884Z,14.13
2018-09-29T17:52:42.351Z,14.10
2018-09-29T17:57:47.697Z,14.02
2018-09-29T18:02:53.863Z,13.97
2018-09-29T18:07:59.271Z,13.88
2018-09-29T18:13:03.726Z,13.79
2018-09-29T18:18:08.291Z,13.68
2018-09-29T18:23:12.781Z,13.60
2018-09-29T18:28:17.263Z,13.58
2018-09-29T18:33:21.789Z,13.62
2018-09-29T18:38:26.557Z,13.61
2018-09-29T18:43:31.223Z,13.56
2018-09-29T18:48:35.841Z,13.50
2018-09-29T18:53:40.183Z,13.47
2018-09-29T18:58:49.644Z,13.40
2018-09-29T19:03:54.223Z,13.33
2018-09-29T19:08:59.049Z,13.27
2018-09-29T19:14:03.907Z,13.19
2018-09-29T19:19:08.632Z,13.14
2018-09-29T19:24:13.193Z,13.11
2018-09-29T19:29:17.695Z,13.06
2018-09-29T19:34:22.139Z,13.05
2018-09-29T19:39:26.706Z,13.02
2018-09-29T19:44:31.707Z,13.02
2018-09-29T19:49:36.245Z,12.98
2018-09-29T19:54:40.611Z,12.94
2018-09-29T19:59:44.943Z,12.89
2018-09-29T20:04:49.357Z,12.83
2018-09-29T20:09:53.487Z,12.88
2018-09-29T20:14:57.931Z,12.88
2018-09-29T20:20:02.665Z,12.82
2018-09-29T20:25:07.034Z,12.77
2018-09-29T20:30:11.371Z,12.74
2018-09-29T20:35:16.155Z,12.70
2018-09-29T20:40:21.013Z,12.68
2018-09-29T20:45:25.369Z,12.60
2018-09-29T20:50:29.605Z,12.50
2018-09-29T20:55:34.277Z,12.47
2018-09-29T21:00:43.687Z,12.43
2018-09-29T21:05:49.165Z,12.39
2018-09-29T21:10:53.799Z,12.33
2018-09-29T21:15:58.177Z,12.33
2018-09-29T21:21:02.867Z,12.29
2018-09-29T21:26:08.121Z,12.29
2018-09-29T21:31:12.398Z,12.20
2018-09-29T21:36:16.861Z,12.12
2018-09-29T21:41:21.238Z,12.00
2018-09-29T21:46:25.492Z,11.96
2018-09-29T21:51:29.708Z,11.91
2018-09-29T21:56:34.052Z,11.87
2018-09-29T22:01:38.584Z,11.92
2018-09-29T22:06:42.904Z,11.94
2018-09-29T22:11:47.375Z,11.97
2018-09-29T22:16:51.647Z,11.95
2018-09-29T22:21:55.929Z,11.95
2018-09-29T22:27:00.303Z,11.94
2018-09-29T22:32:04.797Z,11.94
2018-09-29T22:37:09.157Z,11.82
2018-09-29T22:42:13.556Z,11.74
2018-09-29T22:47:17.867Z,11.69
2018-09-29T22:52:22.073Z,11.61
2018-09-29T22:57:26.314Z,11.53
2018-09-29T23:02:31.486Z,11.48
2018-09-29T23:07:35.990Z,11.47
2018-09-29T23:12:40.293Z,11.42
2018-09-29T23:17:44.547Z,11.38
2018-09-29T23:22:48.842Z,11.28
2018-09-29T23:27:53.183Z,11.11
2018-09-29T23:32:57.541Z,10.96
2018-09-29T23:38:01.769Z,10.79
2018-09-29T23:43:05.995Z,10.82
2018-09-29T23:48:10.306Z,10.72
2018-09-29T23:53:14.653Z,10.65
2018-09-29T23:58:19.499Z,10.57
